Time;durP1;ratioP1;P1;durP2;ratioP2;P2;SDS_P1;SDS_P2;PMS_P1;PMS_P2;Temp;Humidity;BMP_temperature;BMP_pressure;BME280_temperature;BME280_humidity;BME280_pressure;Samples;Min_cycle;Max_cycle;Signal;HPM_P1;HPM_P2
2022/01/28 12:25:44;;;;;;;6.47;3.23;;;;;;;;;;6251979;22;20198;-90
2022/01/28 12:28:51;;;;;;;5.47;2.90;;;;;;;;;;6174700;23;20191;-90
2022/01/28 12:31:58;;;;;;;6.77;2.60;;;;;;;;;;6201075;23;20156;-90
2022/01/28 12:35:03;;;;;;;6.30;2.50;;;;;;;;;;6182811;23;20152;-91
2022/01/28 12:38:08;;;;;;;9.00;2.83;;;;;;;;;;6185649;23;20156;-91
2022/01/28 12:41:15;;;;;;;4.37;2.40;;;;;;;;;;6184263;23;20156;-91
2022/01/28 12:44:20;;;;;;;6.47;2.97;;;;;;;;;;6184749;23;20152;-90
2022/01/28 12:47:31;;;;;;;3.13;2.23;;;;;;;;;;6185819;23;20159;-90
2022/01/28 12:50:35;;;;;;;5.17;2.70;;;;;;;;;;6185075;23;20152;-90
2022/01/28 12:53:42;;;;;;;6.27;2.73;;;;;;;;;;6192538;23;20168;-90
2022/01/28 12:56:48;;;;;;;9.73;3.30;;;;;;;;;;6176488;23;20192;-91
2022/01/28 12:59:52;;;;;;;4.80;2.80;;;;;;;;;;6175889;23;20163;-90
2022/01/28 13:02:56;;;;;;;5.53;3.00;;;;;;;;;;6175131;23;20559;-90
2022/01/28 13:06:24;;;;;;;5.63;2.97;;;;;;;;;;6178768;23;20187;-90
2022/01/28 13:09:33;;;;;;;5.33;2.70;;;;;;;;;;6183994;23;20624;-90
2022/01/28 13:12:37;;;;;;;9.87;3.10;;;;;;;;;;6184303;23;20507;-90
2022/01/28 13:15:52;;;;;;;8.17;2.80;;;;;;;;;;6197931;23;20196;-90
2022/01/28 13:18:58;;;;;;;5.30;3.07;;;;;;;;;;6184463;23;20152;-90
2022/01/28 13:22:04;;;;;;;8.00;3.37;;;;;;;;;;6178824;23;20144;-90
2022/01/28 13:25:18;;;;;;;5.77;2.67;;;;;;;;;;6183230;23;20528;-91
2022/01/28 13:28:22;;;;;;;11.80;3.20;;;;;;;;;;6182028;23;20156;-90
2022/01/28 13:31:26;;;;;;;6.00;3.10;;;;;;;;;;6195894;23;20153;-90
2022/01/28 13:34:53;;;;;;;6.30;3.10;;;;;;;;;;6179350;23;20156;-90
2022/01/28 13:38:05;;;;;;;6.73;3.00;;;;;;;;;;6177673;23;20153;-91
2022/01/28 13:41:24;;;;;;;8.47;3.00;;;;;;;;;;6178734;23;20148;-90
2022/01/28 13:44:30;;;;;;;4.90;3.07;;;;;;;;;;6175912;23;20586;-91
2022/01/28 13:47:48;;;;;;;4.37;2.70;;;;;;;;;;6192925;23;20156;-90
2022/01/28 13:50:53;;;;;;;4.93;2.87;;;;;;;;;;6175618;23;20586;-91
2022/01/28 13:57:09;;;;;;;9.80;4.30;;;;;;;;;;6182568;23;20192;-91
2022/01/28 14:00:14;;;;;;;9.40;5.47;;;;;;;;;;6165411;23;20160;-91
2022/01/28 14:03:26;;;;;;;9.20;6.00;;;;;;;;;;6192702;23;20149;-91
2022/01/28 14:06:33;;;;;;;6.63;3.53;;;;;;;;;;6168260;23;20196;-90
2022/01/28 14:09:50;;;;;;;7.60;3.03;;;;;;;;;;6175395;23;20184;-91
2022/01/28 14:12:56;;;;;;;5.33;2.47;;;;;;;;;;6175357;23;20589;-90
2022/01/28 14:16:13;;;;;;;8.97;2.67;;;;;;;;;;6170253;23;20579;-91
2022/01/28 14:19:17;;;;;;;11.10;4.73;;;;;;;;;;6175668;23;20504;-90
2022/01/28 14:22:22;;;;;;;3.77;2.10;;;;;;;;;;6175433;23;21020;-91
2022/01/28 14:25:26;;;;;;;5.97;2.33;;;;;;;;;;6165665;23;20583;-91
2022/01/28 14:28:59;;;;;;;8.87;3.40;;;;;;;;;;6175436;23;20504;-90
2022/01/28 14:32:05;;;;;;;13.10;3.50;;;;;;;;;;6192550;23;20508;-91
2022/01/28 14:35:09;;;;;;;6.90;3.30;;;;;;;;;;6174205;23;20579;-90
2022/01/28 14:38:14;;;;;;;7.00;2.50;;;;;;;;;;6175706;23;20508;-91
2022/01/28 14:41:18;;;;;;;7.90;2.87;;;;;;;;;;6192778;23;20504;-90
2022/01/28 14:44:22;;;;;;;6.37;2.80;;;;;;;;;;6175746;23;20833;-90
2022/01/28 14:47:26;;;;;;;5.03;2.27;;;;;;;;;;6175601;23;20508;-88
2022/01/28 14:50:33;;;;;;;8.73;4.43;;;;;;;;;;6175050;23;20560;-89
2022/01/28 14:53:37;;;;;;;6.57;2.80;;;;;;;;;;6175709;23;21032;-89
2022/01/28 14:56:41;;;;;;;5.97;2.33;;;;;;;;;;6164722;23;20582;-89
2022/01/28 14:59:45;;;;;;;5.60;2.70;;;;;;;;;;6199565;23;20559;-89
2022/01/28 15:02:49;;;;;;;6.40;2.10;;;;;;;;;;6192469;23;20503;-90
2022/01/28 15:05:53;;;;;;;5.30;1.67;;;;;;;;;;6170284;23;20583;-90
2022/01/28 15:09:00;;;;;;;6.93;1.87;;;;;;;;;;6194075;23;20519;-90
2022/01/28 15:12:07;;;;;;;12.37;6.00;;;;;;;;;;6177313;23;20508;-90
2022/01/28 15:15:12;;;;;;;6.33;2.53;;;;;;;;;;6174991;23;21142;-90
2022/01/28 15:18:16;;;;;;;6.53;1.67;;;;;;;;;;6176757;23;20504;-90
2022/01/28 15:21:20;;;;;;;9.40;3.77;;;;;;;;;;6175367;23;20571;-90
2022/01/28 15:24:26;;;;;;;6.40;2.30;;;;;;;;;;6176095;23;21063;-90
2022/01/28 15:27:32;;;;;;;9.67;2.10;;;;;;;;;;6176515;23;20980;-90
2022/01/28 15:37:21;;;;;;;7.03;2.30;;;;;;;;;;6191736;23;20503;-90
2022/01/28 15:40:26;;;;;;;9.43;2.37;;;;;;;;;;6174257;23;20500;-90
2022/01/28 15:43:29;;;;;;;7.93;1.97;;;;;;;;;;6208194;23;20829;-90
2022/01/28 15:46:34;;;;;;;4.80;2.80;;;;;;;;;;6163963;23;21138;-90
2022/01/28 15:49:40;;;;;;;9.20;2.93;;;;;;;;;;6163966;23;20606;-90
2022/01/28 15:52:45;;;;;;;7.93;2.10;;;;;;;;;;6174320;23;20511;-90
2022/01/28 15:55:50;;;;;;;9.07;2.03;;;;;;;;;;6186455;23;20582;-90
2022/01/28 15:58:54;;;;;;;8.03;2.27;;;;;;;;;;6174392;23;20504;-90
2022/01/28 16:01:59;;;;;;;12.83;2.70;;;;;;;;;;6174283;23;20508;-90
2022/01/28 16:05:03;;;;;;;10.07;2.30;;;;;;;;;;6172509;23;20503;-90
2022/01/28 16:08:07;;;;;;;10.50;2.27;;;;;;;;;;6173837;23;20523;-90
2022/01/28 16:14:26;;;;;;;9.67;2.80;;;;;;;;;;6190696;23;20512;-90
2022/01/28 16:17:37;;;;;;;5.53;2.53;;;;;;;;;;6174219;23;20503;-91
2022/01/28 16:20:41;;;;;;;7.50;3.50;;;;;;;;;;6168402;23;20563;-90
2022/01/28 16:24:04;;;;;;;5.60;3.27;;;;;;;;;;6199447;23;20520;-90
2022/01/28 16:27:09;;;;;;;5.20;2.17;;;;;;;;;;6163725;23;20572;-90
2022/01/28 16:30:12;;;;;;;30.37;15.73;;;;;;;;;;6174015;23;20559;-90
2022/01/28 16:33:17;;;;;;;17.57;7.63;;;;;;;;;;6174102;23;20511;-90
2022/01/28 16:36:20;;;;;;;21.50;9.53;;;;;;;;;;6164213;23;20583;-90
2022/01/28 16:39:25;;;;;;;20.33;10.10;;;;;;;;;;6163729;23;20559;-90
2022/01/28 16:42:37;;;;;;;15.40;7.63;;;;;;;;;;6174357;23;21023;-90
2022/01/28 16:45:41;;;;;;;26.10;14.10;;;;;;;;;;6186612;23;20579;-90
2022/01/28 16:48:45;;;;;;;11.03;7.30;;;;;;;;;;6191185;23;20810;-91
2022/01/28 16:51:51;;;;;;;14.53;5.70;;;;;;;;;;6173801;23;20503;-90
2022/01/28 16:54:58;;;;;;;7.50;3.20;;;;;;;;;;6173929;23;20504;-90
2022/01/28 16:58:02;;;;;;;12.37;3.40;;;;;;;;;;6183153;23;20507;-90
2022/01/28 17:01:06;;;;;;;7.33;3.23;;;;;;;;;;6201029;23;20512;-90
2022/01/28 17:04:10;;;;;;;12.33;5.07;;;;;;;;;;6193411;23;21036;-90
2022/01/28 17:07:14;;;;;;;8.33;4.30;;;;;;;;;;6175979;23;20504;-90
2022/01/28 17:10:42;;;;;;;11.50;3.10;;;;;;;;;;6176158;23;20559;-90
2022/01/28 17:13:47;;;;;;;14.07;3.03;;;;;;;;;;6193151;23;20511;-90
2022/01/28 17:16:54;;;;;;;7.87;2.83;;;;;;;;;;6167573;23;20575;-90
2022/01/28 17:19:58;;;;;;;7.87;3.13;;;;;;;;;;6191585;23;20559;-90
2022/01/28 17:23:03;;;;;;;10.43;2.33;;;;;;;;;;6212051;23;20504;-89
2022/01/28 17:26:07;;;;;;;6.50;2.63;;;;;;;;;;6172103;23;21131;-90
2022/01/28 17:29:11;;;;;;;6.47;3.17;;;;;;;;;;6178139;23;20504;-90
2022/01/28 17:32:17;;;;;;;150.93;67.17;;;;;;;;;;6196684;23;20499;-90
2022/01/28 17:35:21;;;;;;;12.93;6.80;;;;;;;;;;6178275;23;20589;-90
2022/01/28 17:38:27;;;;;;;8.13;4.10;;;;;;;;;;6187502;23;20558;-90
2022/01/28 17:41:33;;;;;;;9.67;3.77;;;;;;;;;;6201470;23;20558;-89
2022/01/28 17:44:37;;;;;;;10.17;4.07;;;;;;;;;;6194777;23;20512;-89
2022/01/28 17:47:41;;;;;;;8.80;5.00;;;;;;;;;;6182420;23;20559;-90
2022/01/28 17:50:46;;;;;;;9.30;4.03;;;;;;;;;;6191599;23;20559;-89
2022/01/28 17:53:50;;;;;;;10.23;3.40;;;;;;;;;;6187957;23;20508;-90
2022/01/28 17:56:55;;;;;;;15.17;9.87;;;;;;;;;;6186488;23;20574;-90
2022/01/28 17:59:59;;;;;;;6.20;3.83;;;;;;;;;;6177617;23;20826;-90
2022/01/28 18:03:04;;;;;;;4.43;2.97;;;;;;;;;;6179688;23;20831;-90
2022/01/28 18:06:08;;;;;;;4.93;2.77;;;;;;;;;;6166747;23;20586;-90
2022/01/28 18:09:13;;;;;;;9.93;3.30;;;;;;;;;;6177396;23;20516;-90
2022/01/28 18:12:17;;;;;;;9.33;3.80;;;;;;;;;;6178092;23;20508;-90
2022/01/28 18:15:21;;;;;;;4.07;2.90;;;;;;;;;;6175026;23;20579;-90
2022/01/28 18:18:26;;;;;;;6.97;2.90;;;;;;;;;;6179006;23;20507;-90
2022/01/28 18:21:30;;;;;;;6.93;2.80;;;;;;;;;;6193215;23;20567;-90
2022/01/28 18:24:34;;;;;;;8.30;2.97;;;;;;;;;;6194714;23;20520;-90
2022/01/28 18:27:38;;;;;;;4.40;2.47;;;;;;;;;;6177618;23;20503;-90
2022/01/28 18:30:43;;;;;;;13.43;6.73;;;;;;;;;;6193587;23;20571;-90
2022/01/28 18:33:47;;;;;;;9.13;3.77;;;;;;;;;;6159900;23;20643;-86
2022/01/28 18:36:51;;;;;;;6.00;3.13;;;;;;;;;;6161629;23;20505;-86
2022/01/28 18:39:55;;;;;;;9.57;5.13;;;;;;;;;;6178646;23;20550;-86
2022/01/28 18:43:02;;;;;;;11.47;3.70;;;;;;;;;;6144175;23;20505;-86
2022/01/28 18:46:11;;;;;;;14.70;9.90;;;;;;;;;;6134936;23;21099;-86
2022/01/28 18:49:15;;;;;;;13.03;6.17;;;;;;;;;;6161666;23;20505;-86
2022/01/28 18:52:19;;;;;;;8.03;4.90;;;;;;;;;;6161510;23;20501;-86
2022/01/28 18:55:23;;;;;;;7.83;4.90;;;;;;;;;;6144751;23;20496;-86
2022/01/28 18:58:27;;;;;;;10.57;4.73;;;;;;;;;;6151234;23;20548;-86
2022/01/28 19:01:31;;;;;;;7.03;4.43;;;;;;;;;;6144628;23;20497;-86
2022/01/28 19:04:35;;;;;;;9.57;4.97;;;;;;;;;;6137338;23;20575;-86
2022/01/28 19:07:40;;;;;;;12.67;6.50;;;;;;;;;;6144589;23;20822;-86
2022/01/28 19:10:44;;;;;;;8.70;4.70;;;;;;;;;;6161219;23;20556;-86
2022/01/28 19:13:48;;;;;;;7.83;5.30;;;;;;;;;;6157347;23;20572;-86
2022/01/28 19:16:52;;;;;;;8.43;4.43;;;;;;;;;;6161201;23;20504;-86
2022/01/28 19:19:57;;;;;;;9.93;4.43;;;;;;;;;;6144284;23;20501;-86
2022/01/28 19:23:01;;;;;;;11.20;4.77;;;;;;;;;;6151179;23;20556;-86
2022/01/28 19:26:04;;;;;;;10.97;4.47;;;;;;;;;;6151608;23;21104;-86
2022/01/28 19:29:09;;;;;;;9.37;4.70;;;;;;;;;;6160866;23;20500;-85
2022/01/28 19:32:13;;;;;;;12.43;4.53;;;;;;;;;;6177908;23;20559;-86
2022/01/28 19:35:17;;;;;;;11.13;5.00;;;;;;;;;;6121442;23;20560;-86
2022/01/28 19:38:21;;;;;;;10.93;5.93;;;;;;;;;;6138437;23;20557;-86
2022/01/28 19:41:25;;;;;;;10.37;5.03;;;;;;;;;;6122161;23;20548;-86
2022/01/28 19:44:29;;;;;;;13.73;5.63;;;;;;;;;;6155684;23;20588;-86
2022/01/28 19:47:34;;;;;;;9.43;5.03;;;;;;;;;;6131573;23;20502;-86
2022/01/28 19:50:40;;;;;;;9.37;4.90;;;;;;;;;;6148378;23;20561;-86
2022/01/28 19:53:44;;;;;;;10.50;4.93;;;;;;;;;;6144311;23;20577;-86
2022/01/28 19:56:48;;;;;;;8.07;4.53;;;;;;;;;;6147959;23;21029;-86
2022/01/28 19:59:52;;;;;;;10.60;5.03;;;;;;;;;;6148261;23;21026;-86
2022/01/28 20:02:56;;;;;;;11.83;5.63;;;;;;;;;;6131112;23;20497;-86
2022/01/28 20:06:00;;;;;;;11.93;5.50;;;;;;;;;;6131831;23;20505;-86
2022/01/28 20:09:05;;;;;;;13.77;5.40;;;;;;;;;;6148528;23;20505;-86
2022/01/28 20:12:11;;;;;;;14.33;6.57;;;;;;;;;;6131493;23;21089;-86
2022/01/28 20:15:15;;;;;;;10.70;5.43;;;;;;;;;;6121031;23;20576;-86
2022/01/28 20:18:20;;;;;;;9.17;5.37;;;;;;;;;;6121602;23;20548;-85
2022/01/28 20:21:24;;;;;;;11.37;5.50;;;;;;;;;;6131345;23;20501;-85
2022/01/28 20:24:28;;;;;;;11.30;5.77;;;;;;;;;;6124713;23;21132;-86
2022/01/28 20:27:31;;;;;;;13.43;5.80;;;;;;;;;;6131207;23;21044;-87
2022/01/28 20:30:36;;;;;;;9.43;5.83;;;;;;;;;;6131895;23;20573;-87
2022/01/28 20:33:40;;;;;;;11.70;6.20;;;;;;;;;;6156009;23;20591;-87
2022/01/28 20:36:44;;;;;;;13.93;6.77;;;;;;;;;;6162592;23;20500;-87
2022/01/28 20:39:48;;;;;;;12.17;6.33;;;;;;;;;;6162655;23;21044;-87
2022/01/28 20:42:53;;;;;;;12.27;6.20;;;;;;;;;;6162404;23;20500;-86
2022/01/28 20:45:56;;;;;;;15.57;6.13;;;;;;;;;;6145773;23;20824;-86
2022/01/28 20:49:01;;;;;;;12.77;6.10;;;;;;;;;;6162763;23;20504;-86
2022/01/28 20:52:06;;;;;;;10.77;6.23;;;;;;;;;;6162386;23;20560;-86
2022/01/28 20:55:11;;;;;;;15.33;6.53;;;;;;;;;;6152763;23;20572;-86
2022/01/28 20:58:15;;;;;;;16.40;6.57;;;;;;;;;;6146184;23;20505;-86
2022/01/28 21:01:19;;;;;;;10.47;5.83;;;;;;;;;;6162354;23;20508;-86
2022/01/28 21:04:23;;;;;;;9.50;5.80;;;;;;;;;;6139143;23;20575;-86
2022/01/28 21:07:28;;;;;;;9.50;6.50;;;;;;;;;;6162675;23;20500;-86
2022/01/28 21:10:32;;;;;;;12.80;6.70;;;;;;;;;;6145396;23;20505;-87
2022/01/28 21:13:37;;;;;;;10.43;6.30;;;;;;;;;;6142580;23;20571;-86
2022/01/28 21:16:42;;;;;;;11.47;6.10;;;;;;;;;;6162079;23;20516;-86
2022/01/28 21:19:47;;;;;;;11.60;5.93;;;;;;;;;;6145730;23;20500;-86
2022/01/28 21:22:53;;;;;;;14.73;7.40;;;;;;;;;;6162261;23;20496;-86
2022/01/28 21:25:57;;;;;;;11.77;6.30;;;;;;;;;;6145599;23;20504;-86
2022/01/28 21:29:02;;;;;;;9.73;5.53;;;;;;;;;;6162206;23;20508;-86
2022/01/28 21:32:06;;;;;;;16.57;6.03;;;;;;;;;;6145881;23;20555;-85
2022/01/28 21:35:10;;;;;;;13.87;6.33;;;;;;;;;;6122355;23;20608;-85
2022/01/28 21:38:14;;;;;;;10.93;6.40;;;;;;;;;;6122669;23;21097;-85
2022/01/28 21:41:19;;;;;;;9.80;6.00;;;;;;;;;;6122523;23;20557;-85
2022/01/28 21:44:23;;;;;;;9.90;5.63;;;;;;;;;;6126218;23;20572;-85
2022/01/28 21:47:26;;;;;;;9.40;5.97;;;;;;;;;;6132647;23;20513;-86
2022/01/28 21:50:31;;;;;;;11.23;5.90;;;;;;;;;;6132623;23;20502;-86
2022/01/28 21:53:35;;;;;;;13.90;5.00;;;;;;;;;;6129236;23;20573;-86
2022/01/28 21:56:39;;;;;;;9.97;5.00;;;;;;;;;;6132827;23;20509;-86
2022/01/28 21:59:44;;;;;;;10.30;5.30;;;;;;;;;;6166400;23;20506;-86
2022/01/28 22:02:47;;;;;;;9.97;5.37;;;;;;;;;;6132573;23;20498;-86
2022/01/28 22:05:55;;;;;;;7.50;5.00;;;;;;;;;;6149391;23;21018;-86
2022/01/28 22:08:59;;;;;;;10.20;4.77;;;;;;;;;;6132171;23;20518;-86
2022/01/28 22:12:04;;;;;;;8.07;5.30;;;;;;;;;;6132362;23;20557;-86
2022/01/28 22:15:08;;;;;;;8.90;4.80;;;;;;;;;;6122729;23;20573;-86
2022/01/28 22:18:14;;;;;;;9.30;5.47;;;;;;;;;;6122169;23;20545;-85
2022/01/28 22:21:18;;;;;;;8.43;5.13;;;;;;;;;;6122539;23;20549;-85
2022/01/28 22:24:23;;;;;;;11.53;4.83;;;;;;;;;;6142742;23;20576;-88
2022/01/28 22:27:27;;;;;;;12.87;5.83;;;;;;;;;;6149439;23;21017;-88
2022/01/28 22:30:32;;;;;;;7.67;5.00;;;;;;;;;;6149059;23;20517;-87
2022/01/28 22:33:36;;;;;;;10.10;5.30;;;;;;;;;;6131008;23;20596;-86
2022/01/28 22:36:40;;;;;;;9.00;5.20;;;;;;;;;;6161644;23;20504;-86
2022/01/28 22:39:44;;;;;;;10.57;5.50;;;;;;;;;;6144631;23;20516;-86
2022/01/28 22:42:50;;;;;;;8.30;5.43;;;;;;;;;;6161727;23;20496;-86
2022/01/28 22:45:54;;;;;;;8.47;4.97;;;;;;;;;;6144464;23;20521;-86
2022/01/28 22:48:58;;;;;;;8.20;5.27;;;;;;;;;;6151823;23;20556;-87
2022/01/28 22:52:02;;;;;;;9.27;5.03;;;;;;;;;;6151328;23;20600;-86
2022/01/28 22:55:08;;;;;;;10.07;5.43;;;;;;;;;;6135374;23;20572;-88
2022/01/28 22:58:14;;;;;;;9.17;5.10;;;;;;;;;;6144731;23;20500;-88
2022/01/28 23:01:18;;;;;;;12.20;5.53;;;;;;;;;;6144755;23;20517;-86
2022/01/28 23:04:22;;;;;;;9.30;5.10;;;;;;;;;;6134355;23;20584;-86
2022/01/28 23:07:28;;;;;;;12.03;5.73;;;;;;;;;;6144758;23;20501;-86
2022/01/28 23:10:32;;;;;;;8.93;5.03;;;;;;;;;;6161059;23;20508;-86
2022/01/28 23:13:36;;;;;;;8.07;4.97;;;;;;;;;;6158391;23;20576;-86
2022/01/28 23:16:40;;;;;;;9.17;5.40;;;;;;;;;;6134705;23;21096;-86
2022/01/28 23:19:45;;;;;;;11.43;5.30;;;;;;;;;;6144764;23;20505;-86
2022/01/28 23:22:49;;;;;;;11.17;5.57;;;;;;;;;;6144796;23;20496;-86
2022/01/28 23:25:53;;;;;;;10.60;5.33;;;;;;;;;;6144781;23;20504;-87
2022/01/28 23:28:57;;;;;;;16.10;5.30;;;;;;;;;;6161257;23;20500;-88
2022/01/28 23:32:02;;;;;;;10.10;5.50;;;;;;;;;;6160743;23;20564;-86
2022/01/28 23:35:06;;;;;;;13.27;5.57;;;;;;;;;;6121643;23;20593;-85
2022/01/28 23:38:11;;;;;;;10.33;5.60;;;;;;;;;;6148219;23;21033;-85
2022/01/28 23:41:15;;;;;;;10.00;5.37;;;;;;;;;;6131620;23;20514;-85
2022/01/28 23:44:19;;;;;;;11.10;5.60;;;;;;;;;;6125425;23;20576;-88
2022/01/28 23:47:23;;;;;;;10.07;5.63;;;;;;;;;;6148425;23;20502;-88
2022/01/28 23:50:27;;;;;;;8.67;5.37;;;;;;;;;;6121704;23;20561;-86
2022/01/28 23:53:31;;;;;;;10.97;5.10;;;;;;;;;;6128625;23;20612;-86
2022/01/28 23:56:39;;;;;;;9.60;5.63;;;;;;;;;;6131715;23;20505;-88
2022/01/28 23:59:43;;;;;;;8.23;5.23;;;;;;;;;;6122539;23;20549;-88
